sensor_id;sensor_type;location;lat;lon;timestamp;temperature;humidity
38866;DHT22;62686;48.984;8.394;2023-07-13T00:01:07;16.90;99.90
38866;DHT22;62686;48.984;8.394;2023-07-13T00:03:35;16.90;99.90
38866;DHT22;62686;48.984;8.394;2023-07-13T00:06:05;16.80;99.90
38866;DHT22;62686;48.984;8.394;2023-07-13T00:08:34;16.80;99.90
38866;DHT22;62686;48.984;8.394;2023-07-13T00:11:02;16.70;99.90
38866;DHT22;62686;48.984;8.394;2023-07-13T00:13:30;16.60;99.90
38866;DHT22;62686;48.984;8.394;2023-07-13T00:15:59;16.50;99.90
38866;DHT22;62686;48.984;8.394;2023-07-13T00:18:27;16.50;99.90
38866;DHT22;62686;48.984;8.394;2023-07-13T00:20:57;16.60;99.90
38866;DHT22;62686;48.984;8.394;2023-07-13T00:23:33;16.80;99.90
38866;DHT22;62686;48.984;8.394;2023-07-13T00:26:01;16.80;99.90
38866;DHT22;62686;48.984;8.394;2023-07-13T00:28:30;16.80;99.90
38866;DHT22;62686;48.984;8.394;2023-07-13T00:30:59;16.80;99.90
38866;DHT22;62686;48.984;8.394;2023-07-13T00:33:27;16.60;99.90
38866;DHT22;62686;48.984;8.394;2023-07-13T00:35:56;16.60;99.90
38866;DHT22;62686;48.984;8.394;2023-07-13T00:38:24;16.40;99.90
38866;DHT22;62686;48.984;8.394;2023-07-13T00:40:54;16.30;99.90
38866;DHT22;62686;48.984;8.394;2023-07-13T00:43:24;16.30;99.90
38866;DHT22;62686;48.984;8.394;2023-07-13T00:46:21;16.20;99.90
38866;DHT22;62686;48.984;8.394;2023-07-13T00:48:51;16.10;99.90
38866;DHT22;62686;48.984;8.394;2023-07-13T00:51:25;16.00;99.90
38866;DHT22;62686;48.984;8.394;2023-07-13T00:53:58;16.00;99.90
38866;DHT22;62686;48.984;8.394;2023-07-13T00:56:28;16.10;99.90
38866;DHT22;62686;48.984;8.394;2023-07-13T00:58:58;16.10;99.90
38866;DHT22;62686;48.984;8.394;2023-07-13T01:01:27;16.10;99.90
38866;DHT22;62686;48.984;8.394;2023-07-13T01:03:55;16.00;99.90
38866;DHT22;62686;48.984;8.394;2023-07-13T01:06:24;15.90;99.90
38866;DHT22;62686;48.984;8.394;2023-07-13T01:08:52;15.90;99.90
38866;DHT22;62686;48.984;8.394;2023-07-13T01:11:22;15.90;99.90
38866;DHT22;62686;48.984;8.394;2023-07-13T01:13:51;15.80;99.90
38866;DHT22;62686;48.984;8.394;2023-07-13T01:16:25;15.80;99.90
38866;DHT22;62686;48.984;8.394;2023-07-13T01:18:54;15.70;99.90
38866;DHT22;62686;48.984;8.394;2023-07-13T01:21:27;15.70;99.90
38866;DHT22;62686;48.984;8.394;2023-07-13T01:23:57;15.70;99.90
38866;DHT22;62686;48.984;8.394;2023-07-13T01:26:25;15.60;99.90
38866;DHT22;62686;48.984;8.394;2023-07-13T01:28:54;15.60;99.90
38866;DHT22;62686;48.984;8.394;2023-07-13T01:31:24;15.60;99.90
38866;DHT22;62686;48.984;8.394;2023-07-13T01:33:52;15.50;99.90
38866;DHT22;62686;48.984;8.394;2023-07-13T01:36:20;15.50;99.90
38866;DHT22;62686;48.984;8.394;2023-07-13T01:38:50;15.50;99.90
38866;DHT22;62686;48.984;8.394;2023-07-13T01:41:19;15.50;99.90
38866;DHT22;62686;48.984;8.394;2023-07-13T01:43:47;15.60;99.90
38866;DHT22;62686;48.984;8.394;2023-07-13T01:46:15;15.60;99.90
38866;DHT22;62686;48.984;8.394;2023-07-13T01:48:48;15.60;99.90
38866;DHT22;62686;48.984;8.394;2023-07-13T01:51:19;15.60;99.90
38866;DHT22;62686;48.984;8.394;2023-07-13T01:53:47;15.60;99.90
38866;DHT22;62686;48.984;8.394;2023-07-13T01:56:18;15.60;99.90
38866;DHT22;62686;48.984;8.394;2023-07-13T01:58:47;15.70;99.90
38866;DHT22;62686;48.984;8.394;2023-07-13T02:01:15;15.70;99.90
38866;DHT22;62686;48.984;8.394;2023-07-13T02:03:44;15.70;99.90
38866;DHT22;62686;48.984;8.394;2023-07-13T02:06:13;15.70;99.90
38866;DHT22;62686;48.984;8.394;2023-07-13T02:08:41;15.50;99.90
38866;DHT22;62686;48.984;8.394;2023-07-13T02:11:10;15.40;99.90
38866;DHT22;62686;48.984;8.394;2023-07-13T02:13:39;15.30;99.90
38866;DHT22;62686;48.984;8.394;2023-07-13T02:16:07;15.20;99.90
38866;DHT22;62686;48.984;8.394;2023-07-13T02:18:36;15.00;99.90
38866;DHT22;62686;48.984;8.394;2023-07-13T02:21:04;14.90;99.90
38866;DHT22;62686;48.984;8.394;2023-07-13T02:23:33;14.80;99.90
38866;DHT22;62686;48.984;8.394;2023-07-13T02:26:03;14.70;99.90
38866;DHT22;62686;48.984;8.394;2023-07-13T02:28:31;14.60;99.90
38866;DHT22;62686;48.984;8.394;2023-07-13T02:31:06;14.50;99.90
38866;DHT22;62686;48.984;8.394;2023-07-13T02:33:35;14.50;99.90
38866;DHT22;62686;48.984;8.394;2023-07-13T02:36:04;14.50;99.90
38866;DHT22;62686;48.984;8.394;2023-07-13T02:38:34;14.50;99.90
38866;DHT22;62686;48.984;8.394;2023-07-13T02:41:03;14.40;99.90
38866;DHT22;62686;48.984;8.394;2023-07-13T02:43:31;14.40;99.90
38866;DHT22;62686;48.984;8.394;2023-07-13T02:45:59;14.40;99.90
38866;DHT22;62686;48.984;8.394;2023-07-13T02:48:35;14.30;99.90
38866;DHT22;62686;48.984;8.394;2023-07-13T02:51:04;14.30;99.90
38866;DHT22;62686;48.984;8.394;2023-07-13T02:53:32;14.30;99.90
38866;DHT22;62686;48.984;8.394;2023-07-13T02:56:03;14.20;99.90
38866;DHT22;62686;48.984;8.394;2023-07-13T02:58:31;14.20;99.90
38866;DHT22;62686;48.984;8.394;2023-07-13T03:00:59;14.20;99.90
38866;DHT22;62686;48.984;8.394;2023-07-13T03:03:35;14.20;99.90
38866;DHT22;62686;48.984;8.394;2023-07-13T03:06:04;14.20;99.90
38866;DHT22;62686;48.984;8.394;2023-07-13T03:08:34;14.20;99.90
38866;DHT22;62686;48.984;8.394;2023-07-13T03:11:05;14.10;99.90
38866;DHT22;62686;48.984;8.394;2023-07-13T03:13:34;14.10;99.90
38866;DHT22;62686;48.984;8.394;2023-07-13T03:16:03;14.10;99.90
38866;DHT22;62686;48.984;8.394;2023-07-13T03:18:31;14.20;99.90
38866;DHT22;62686;48.984;8.394;2023-07-13T03:21:01;14.30;99.90
38866;DHT22;62686;48.984;8.394;2023-07-13T03:23:30;14.30;99.90
38866;DHT22;62686;48.984;8.394;2023-07-13T03:26:02;14.30;99.90
38866;DHT22;62686;48.984;8.394;2023-07-13T03:28:30;14.30;99.90
38866;DHT22;62686;48.984;8.394;2023-07-13T03:31:02;14.40;99.90
38866;DHT22;62686;48.984;8.394;2023-07-13T03:33:31;14.40;99.90
38866;DHT22;62686;48.984;8.394;2023-07-13T03:36:02;14.30;99.90
38866;DHT22;62686;48.984;8.394;2023-07-13T03:38:30;14.30;99.90
38866;DHT22;62686;48.984;8.394;2023-07-13T03:40:58;14.30;99.90
38866;DHT22;62686;48.984;8.394;2023-07-13T03:43:26;14.40;99.90
38866;DHT22;62686;48.984;8.394;2023-07-13T03:45:54;14.40;99.90
38866;DHT22;62686;48.984;8.394;2023-07-13T03:48:23;14.50;99.90
38866;DHT22;62686;48.984;8.394;2023-07-13T03:50:51;14.50;99.90
38866;DHT22;62686;48.984;8.394;2023-07-13T03:53:20;14.50;99.90
38866;DHT22;62686;48.984;8.394;2023-07-13T03:55:49;14.50;99.90
38866;DHT22;62686;48.984;8.394;2023-07-13T03:58:27;14.50;99.90
38866;DHT22;62686;48.984;8.394;2023-07-13T04:00:55;14.40;99.90
38866;DHT22;62686;48.984;8.394;2023-07-13T04:03:24;14.40;99.90
38866;DHT22;62686;48.984;8.394;2023-07-13T04:05:55;14.30;99.90
38866;DHT22;62686;48.984;8.394;2023-07-13T04:08:29;14.30;99.90
38866;DHT22;62686;48.984;8.394;2023-07-13T04:10:58;14.30;99.90
38866;DHT22;62686;48.984;8.394;2023-07-13T04:13:27;14.40;99.90
38866;DHT22;62686;48.984;8.394;2023-07-13T04:15:55;14.50;99.90
38866;DHT22;62686;48.984;8.394;2023-07-13T04:18:24;14.60;99.90
38866;DHT22;62686;48.984;8.394;2023-07-13T04:20:53;14.70;99.90
38866;DHT22;62686;48.984;8.394;2023-07-13T04:23:21;14.80;99.90
38866;DHT22;62686;48.984;8.394;2023-07-13T04:25:52;14.90;99.90
38866;DHT22;62686;48.984;8.394;2023-07-13T04:28:22;15.10;99.90
38866;DHT22;62686;48.984;8.394;2023-07-13T04:30:51;15.30;99.90
38866;DHT22;62686;48.984;8.394;2023-07-13T04:33:19;15.60;99.90
38866;DHT22;62686;48.984;8.394;2023-07-13T04:35:49;15.90;99.90
38866;DHT22;62686;48.984;8.394;2023-07-13T04:38:21;16.30;99.90
38866;DHT22;62686;48.984;8.394;2023-07-13T04:40:55;16.90;99.90
38866;DHT22;62686;48.984;8.394;2023-07-13T04:43:24;17.60;99.90
38866;DHT22;62686;48.984;8.394;2023-07-13T04:45:53;18.30;99.90
38866;DHT22;62686;48.984;8.394;2023-07-13T04:48:22;18.60;99.90
38866;DHT22;62686;48.984;8.394;2023-07-13T04:50:57;19.00;99.90
38866;DHT22;62686;48.984;8.394;2023-07-13T04:53:26;19.70;99.90
38866;DHT22;62686;48.984;8.394;2023-07-13T04:55:56;20.00;99.90
38866;DHT22;62686;48.984;8.394;2023-07-13T04:58:25;20.50;99.90
38866;DHT22;62686;48.984;8.394;2023-07-13T05:00:59;21.00;99.90
38866;DHT22;62686;48.984;8.394;2023-07-13T05:03:28;21.10;99.90
38866;DHT22;62686;48.984;8.394;2023-07-13T05:05:58;20.80;99.90
38866;DHT22;62686;48.984;8.394;2023-07-13T05:08:26;20.50;99.90
38866;DHT22;62686;48.984;8.394;2023-07-13T05:10:56;20.20;99.90
38866;DHT22;62686;48.984;8.394;2023-07-13T05:13:26;19.90;99.90
38866;DHT22;62686;48.984;8.394;2023-07-13T05:15:59;19.60;99.90
38866;DHT22;62686;48.984;8.394;2023-07-13T05:18:31;19.30;99.90
38866;DHT22;62686;48.984;8.394;2023-07-13T05:21:01;19.10;99.90
38866;DHT22;62686;48.984;8.394;2023-07-13T05:23:30;19.10;99.90
38866;DHT22;62686;48.984;8.394;2023-07-13T05:25:59;19.30;99.90
38866;DHT22;62686;48.984;8.394;2023-07-13T05:28:29;19.50;99.90
38866;DHT22;62686;48.984;8.394;2023-07-13T05:30:58;19.60;99.90
38866;DHT22;62686;48.984;8.394;2023-07-13T05:33:27;19.70;99.90
38866;DHT22;62686;48.984;8.394;2023-07-13T05:35:55;19.60;99.90
38866;DHT22;62686;48.984;8.394;2023-07-13T05:38:24;20.30;99.90
38866;DHT22;62686;48.984;8.394;2023-07-13T05:40:54;20.90;99.90
38866;DHT22;62686;48.984;8.394;2023-07-13T05:43:25;21.70;99.90
38866;DHT22;62686;48.984;8.394;2023-07-13T05:45:56;21.80;99.90
38866;DHT22;62686;48.984;8.394;2023-07-13T05:48:24;22.00;99.90
38866;DHT22;62686;48.984;8.394;2023-07-13T05:50:53;22.20;99.90
38866;DHT22;62686;48.984;8.394;2023-07-13T05:53:21;22.00;99.90
38866;DHT22;62686;48.984;8.394;2023-07-13T05:55:49;22.50;99.90
38866;DHT22;62686;48.984;8.394;2023-07-13T05:58:20;23.10;99.90
38866;DHT22;62686;48.984;8.394;2023-07-13T06:01:00;23.90;99.90
38866;DHT22;62686;48.984;8.394;2023-07-13T06:03:28;25.00;99.90
38866;DHT22;62686;48.984;8.394;2023-07-13T06:05:57;25.80;99.90
38866;DHT22;62686;48.984;8.394;2023-07-13T06:08:27;26.80;99.90
38866;DHT22;62686;48.984;8.394;2023-07-13T06:11:03;28.10;99.90
38866;DHT22;62686;48.984;8.394;2023-07-13T06:13:33;28.60;99.90
38866;DHT22;62686;48.984;8.394;2023-07-13T06:16:03;28.70;99.90
38866;DHT22;62686;48.984;8.394;2023-07-13T06:18:32;29.40;99.90
38866;DHT22;62686;48.984;8.394;2023-07-13T06:21:01;30.40;96.60
38866;DHT22;62686;48.984;8.394;2023-07-13T06:23:29;30.40;95.80
38866;DHT22;62686;48.984;8.394;2023-07-13T06:25:57;30.10;96.00
38866;DHT22;62686;48.984;8.394;2023-07-13T06:28:26;29.10;96.80
38866;DHT22;62686;48.984;8.394;2023-07-13T06:30:54;27.60;99.10
38866;DHT22;62686;48.984;8.394;2023-07-13T06:33:24;26.60;99.90
38866;DHT22;62686;48.984;8.394;2023-07-13T06:35:53;26.50;99.90
38866;DHT22;62686;48.984;8.394;2023-07-13T06:38:21;27.10;99.90
38866;DHT22;62686;48.984;8.394;2023-07-13T06:40:50;28.00;99.90
38866;DHT22;62686;48.984;8.394;2023-07-13T06:43:18;29.10;98.20
38866;DHT22;62686;48.984;8.394;2023-07-13T06:45:48;29.30;96.60
38866;DHT22;62686;48.984;8.394;2023-07-13T06:48:18;29.50;95.60
38866;DHT22;62686;48.984;8.394;2023-07-13T06:50:48;29.80;96.50
38866;DHT22;62686;48.984;8.394;2023-07-13T06:53:18;29.90;96.40
38866;DHT22;62686;48.984;8.394;2023-07-13T06:55:47;30.10;96.50
38866;DHT22;62686;48.984;8.394;2023-07-13T06:58:16;30.00;95.30
38866;DHT22;62686;48.984;8.394;2023-07-13T07:00:44;31.00;94.50
38866;DHT22;62686;48.984;8.394;2023-07-13T07:03:13;30.50;93.90
38866;DHT22;62686;48.984;8.394;2023-07-13T07:05:41;29.90;93.50
38866;DHT22;62686;48.984;8.394;2023-07-13T07:08:11;30.70;94.70
38866;DHT22;62686;48.984;8.394;2023-07-13T07:10:40;30.90;94.10
38866;DHT22;62686;48.984;8.394;2023-07-13T07:13:08;31.40;91.60
38866;DHT22;62686;48.984;8.394;2023-07-13T07:15:37;31.50;91.50
38866;DHT22;62686;48.984;8.394;2023-07-13T07:18:05;31.50;93.70
38866;DHT22;62686;48.984;8.394;2023-07-13T07:20:34;32.20;92.20
38866;DHT22;62686;48.984;8.394;2023-07-13T07:23:02;32.40;90.10
38866;DHT22;62686;48.984;8.394;2023-07-13T07:25:31;33.20;90.90
38866;DHT22;62686;48.984;8.394;2023-07-13T07:28:03;33.30;90.10
38866;DHT22;62686;48.984;8.394;2023-07-13T07:30:35;33.30;88.50
38866;DHT22;62686;48.984;8.394;2023-07-13T07:33:06;33.60;84.30
38866;DHT22;62686;48.984;8.394;2023-07-13T07:35:34;33.50;85.20
38866;DHT22;62686;48.984;8.394;2023-07-13T07:38:04;32.80;81.90
38866;DHT22;62686;48.984;8.394;2023-07-13T07:40:36;33.30;87.80
38866;DHT22;62686;48.984;8.394;2023-07-13T07:43:08;32.20;82.10
38866;DHT22;62686;48.984;8.394;2023-07-13T07:45:37;31.60;84.80
38866;DHT22;62686;48.984;8.394;2023-07-13T07:48:06;31.40;83.30
38866;DHT22;62686;48.984;8.394;2023-07-13T07:50:36;31.50;86.00
38866;DHT22;62686;48.984;8.394;2023-07-13T07:53:05;32.00;83.50
38866;DHT22;62686;48.984;8.394;2023-07-13T07:55:38;33.00;85.70
38866;DHT22;62686;48.984;8.394;2023-07-13T07:58:26;33.60;82.30
38866;DHT22;62686;48.984;8.394;2023-07-13T08:01:03;33.60;81.10
38866;DHT22;62686;48.984;8.394;2023-07-13T08:03:34;33.50;80.10
38866;DHT22;62686;48.984;8.394;2023-07-13T08:06:05;32.20;80.60
38866;DHT22;62686;48.984;8.394;2023-07-13T08:08:36;31.70;80.60
38866;DHT22;62686;48.984;8.394;2023-07-13T08:11:07;31.30;84.30
38866;DHT22;62686;48.984;8.394;2023-07-13T08:13:38;32.60;82.60
38866;DHT22;62686;48.984;8.394;2023-07-13T08:16:06;33.30;81.30
38866;DHT22;62686;48.984;8.394;2023-07-13T08:18:35;33.90;82.90
38866;DHT22;62686;48.984;8.394;2023-07-13T08:21:04;34.40;78.40
38866;DHT22;62686;48.984;8.394;2023-07-13T08:23:32;34.80;72.90
38866;DHT22;62686;48.984;8.394;2023-07-13T08:26:01;34.50;71.20
38866;DHT22;62686;48.984;8.394;2023-07-13T08:28:32;34.60;70.10
38866;DHT22;62686;48.984;8.394;2023-07-13T08:31:01;34.70;66.40
38866;DHT22;62686;48.984;8.394;2023-07-13T08:33:55;34.50;66.00
38866;DHT22;62686;48.984;8.394;2023-07-13T08:36:23;33.70;69.10
38866;DHT22;62686;48.984;8.394;2023-07-13T08:41:23;32.90;66.80
38866;DHT22;62686;48.984;8.394;2023-07-13T08:43:59;32.40;70.40
38866;DHT22;62686;48.984;8.394;2023-07-13T08:46:56;32.40;67.40
38866;DHT22;62686;48.984;8.394;2023-07-13T08:49:27;33.10;73.20
38866;DHT22;62686;48.984;8.394;2023-07-13T08:51:59;33.60;72.40
38866;DHT22;62686;48.984;8.394;2023-07-13T08:54:32;34.10;69.10
38866;DHT22;62686;48.984;8.394;2023-07-13T08:57:03;34.60;70.10
38866;DHT22;62686;48.984;8.394;2023-07-13T09:05:03;36.30;61.80
38866;DHT22;62686;48.984;8.394;2023-07-13T09:07:43;36.10;63.60
38866;DHT22;62686;48.984;8.394;2023-07-13T09:10:15;35.90;58.20
38866;DHT22;62686;48.984;8.394;2023-07-13T09:12:51;36.30;59.50
38866;DHT22;62686;48.984;8.394;2023-07-13T09:15:28;36.30;57.30
38866;DHT22;62686;48.984;8.394;2023-07-13T09:18:04;35.30;58.50
38866;DHT22;62686;48.984;8.394;2023-07-13T09:20:44;34.80;61.10
38866;DHT22;62686;48.984;8.394;2023-07-13T09:23:17;35.30;63.90
38866;DHT22;62686;48.984;8.394;2023-07-13T09:26:00;35.20;62.10
38866;DHT22;62686;48.984;8.394;2023-07-13T09:28:37;34.90;61.90
38866;DHT22;62686;48.984;8.394;2023-07-13T09:31:09;34.70;61.80
38866;DHT22;62686;48.984;8.394;2023-07-13T09:33:39;34.30;58.30
38866;DHT22;62686;48.984;8.394;2023-07-13T09:36:21;34.00;64.50
38866;DHT22;62686;48.984;8.394;2023-07-13T09:38:58;34.00;59.80
38866;DHT22;62686;48.984;8.394;2023-07-13T09:41:33;34.00;62.40
38866;DHT22;62686;48.984;8.394;2023-07-13T09:44:09;34.20;64.20
38866;DHT22;62686;48.984;8.394;2023-07-13T09:46:39;33.40;61.70
38866;DHT22;62686;48.984;8.394;2023-07-13T09:49:13;33.20;62.50
38866;DHT22;62686;48.984;8.394;2023-07-13T09:51:58;33.00;61.70
38866;DHT22;62686;48.984;8.394;2023-07-13T09:54:27;32.10;60.80
38866;DHT22;62686;48.984;8.394;2023-07-13T09:56:56;32.80;64.60
38866;DHT22;62686;48.984;8.394;2023-07-13T09:59:29;33.60;69.50
38866;DHT22;62686;48.984;8.394;2023-07-13T10:01:58;34.60;61.70
38866;DHT22;62686;48.984;8.394;2023-07-13T10:04:30;33.00;58.60
38866;DHT22;62686;48.984;8.394;2023-07-13T10:07:08;32.90;60.20
38866;DHT22;62686;48.984;8.394;2023-07-13T10:09:52;32.30;60.80
38866;DHT22;62686;48.984;8.394;2023-07-13T10:12:21;33.40;61.80
38866;DHT22;62686;48.984;8.394;2023-07-13T10:14:54;34.00;60.20
38866;DHT22;62686;48.984;8.394;2023-07-13T10:17:31;34.50;58.10
38866;DHT22;62686;48.984;8.394;2023-07-13T10:20:01;34.50;58.50
38866;DHT22;62686;48.984;8.394;2023-07-13T10:22:39;34.40;60.90
38866;DHT22;62686;48.984;8.394;2023-07-13T10:25:19;35.10;62.40
38866;DHT22;62686;48.984;8.394;2023-07-13T10:27:54;34.90;61.60
38866;DHT22;62686;48.984;8.394;2023-07-13T10:30:28;33.80;61.20
38866;DHT22;62686;48.984;8.394;2023-07-13T10:36:01;31.80;62.20
38866;DHT22;62686;48.984;8.394;2023-07-13T10:38:33;31.60;68.40
38866;DHT22;62686;48.984;8.394;2023-07-13T10:41:04;30.80;67.00
38866;DHT22;62686;48.984;8.394;2023-07-13T10:43:36;29.80;68.30
38866;DHT22;62686;48.984;8.394;2023-07-13T10:46:07;28.90;67.80
38866;DHT22;62686;48.984;8.394;2023-07-13T10:48:37;28.80;70.70
38866;DHT22;62686;48.984;8.394;2023-07-13T10:51:08;28.60;70.10
38866;DHT22;62686;48.984;8.394;2023-07-13T10:53:39;28.10;69.90
38866;DHT22;62686;48.984;8.394;2023-07-13T10:56:22;28.00;70.40
38866;DHT22;62686;48.984;8.394;2023-07-13T10:59:05;28.00;75.00
38866;DHT22;62686;48.984;8.394;2023-07-13T11:01:49;28.00;73.00
38866;DHT22;62686;48.984;8.394;2023-07-13T11:04:19;27.90;77.20
38866;DHT22;62686;48.984;8.394;2023-07-13T11:06:52;27.80;71.60
38866;DHT22;62686;48.984;8.394;2023-07-13T11:09:35;27.50;71.10
38866;DHT22;62686;48.984;8.394;2023-07-13T11:12:10;27.30;72.90
38866;DHT22;62686;48.984;8.394;2023-07-13T11:15:06;27.70;74.30
38866;DHT22;62686;48.984;8.394;2023-07-13T11:17:47;28.40;72.10
38866;DHT22;62686;48.984;8.394;2023-07-13T11:20:37;28.80;70.30
38866;DHT22;62686;48.984;8.394;2023-07-13T11:23:26;28.80;71.90
38866;DHT22;62686;48.984;8.394;2023-07-13T11:25:56;30.20;75.80
38866;DHT22;62686;48.984;8.394;2023-07-13T11:28:29;31.20;68.10
38866;DHT22;62686;48.984;8.394;2023-07-13T11:31:03;33.10;64.70
38866;DHT22;62686;48.984;8.394;2023-07-13T11:33:55;34.20;59.70
38866;DHT22;62686;48.984;8.394;2023-07-13T11:36:36;35.30;61.90
38866;DHT22;62686;48.984;8.394;2023-07-13T11:39:16;35.40;59.40
38866;DHT22;62686;48.984;8.394;2023-07-13T11:41:50;35.80;55.90
38866;DHT22;62686;48.984;8.394;2023-07-13T11:44:22;35.80;55.60
38866;DHT22;62686;48.984;8.394;2023-07-13T11:46:52;36.60;56.70
38866;DHT22;62686;48.984;8.394;2023-07-13T11:49:24;36.90;56.80
38866;DHT22;62686;48.984;8.394;2023-07-13T11:51:54;37.10;55.90
38866;DHT22;62686;48.984;8.394;2023-07-13T11:54:27;36.80;55.00
38866;DHT22;62686;48.984;8.394;2023-07-13T11:57:01;36.70;53.90
38866;DHT22;62686;48.984;8.394;2023-07-13T11:59:34;35.20;56.40
38866;DHT22;62686;48.984;8.394;2023-07-13T12:04:59;33.10;58.00
38866;DHT22;62686;48.984;8.394;2023-07-13T12:07:30;31.50;59.80
38866;DHT22;62686;48.984;8.394;2023-07-13T12:10:01;31.10;61.60
38866;DHT22;62686;48.984;8.394;2023-07-13T12:12:31;31.20;61.70
38866;DHT22;62686;48.984;8.394;2023-07-13T12:15:00;31.60;63.20
38866;DHT22;62686;48.984;8.394;2023-07-13T12:17:28;33.20;60.10
38866;DHT22;62686;48.984;8.394;2023-07-13T12:19:57;34.40;58.60
38866;DHT22;62686;48.984;8.394;2023-07-13T12:22:25;35.30;57.70
38866;DHT22;62686;48.984;8.394;2023-07-13T12:24:53;35.50;57.70
38866;DHT22;62686;48.984;8.394;2023-07-13T12:27:25;34.90;55.50
38866;DHT22;62686;48.984;8.394;2023-07-13T12:29:59;34.10;54.70
38866;DHT22;62686;48.984;8.394;2023-07-13T12:32:28;34.40;59.30
38866;DHT22;62686;48.984;8.394;2023-07-13T12:35:14;33.90;57.00
38866;DHT22;62686;48.984;8.394;2023-07-13T12:37:43;33.40;57.10
38866;DHT22;62686;48.984;8.394;2023-07-13T12:40:14;32.30;57.10
38866;DHT22;62686;48.984;8.394;2023-07-13T12:42:43;33.00;62.00
38866;DHT22;62686;48.984;8.394;2023-07-13T12:45:20;32.10;56.60
38866;DHT22;62686;48.984;8.394;2023-07-13T12:47:50;30.70;57.70
38866;DHT22;62686;48.984;8.394;2023-07-13T12:50:22;31.60;58.60
38866;DHT22;62686;48.984;8.394;2023-07-13T12:52:52;32.60;58.20
38866;DHT22;62686;48.984;8.394;2023-07-13T12:55:21;32.50;56.00
38866;DHT22;62686;48.984;8.394;2023-07-13T12:57:52;31.80;59.30
38866;DHT22;62686;48.984;8.394;2023-07-13T13:00:26;31.10;62.30
38866;DHT22;62686;48.984;8.394;2023-07-13T13:02:56;30.90;61.40
38866;DHT22;62686;48.984;8.394;2023-07-13T13:05:34;30.50;61.90
38866;DHT22;62686;48.984;8.394;2023-07-13T13:08:04;30.50;63.70
38866;DHT22;62686;48.984;8.394;2023-07-13T13:10:34;30.80;59.00
38866;DHT22;62686;48.984;8.394;2023-07-13T13:13:03;30.70;59.10
38866;DHT22;62686;48.984;8.394;2023-07-13T13:15:33;30.50;60.30
38866;DHT22;62686;48.984;8.394;2023-07-13T13:18:01;32.00;61.30
38866;DHT22;62686;48.984;8.394;2023-07-13T13:20:29;32.60;57.90
38866;DHT22;62686;48.984;8.394;2023-07-13T13:22:58;33.50;56.40
38866;DHT22;62686;48.984;8.394;2023-07-13T13:25:26;32.70;55.80
38866;DHT22;62686;48.984;8.394;2023-07-13T13:27:54;32.70;57.90
38866;DHT22;62686;48.984;8.394;2023-07-13T13:30:23;33.00;57.40
38866;DHT22;62686;48.984;8.394;2023-07-13T13:32:52;33.10;56.50
38866;DHT22;62686;48.984;8.394;2023-07-13T13:35:21;33.60;54.80
38866;DHT22;62686;48.984;8.394;2023-07-13T13:37:49;33.70;55.30
38866;DHT22;62686;48.984;8.394;2023-07-13T13:40:20;33.00;55.30
38866;DHT22;62686;48.984;8.394;2023-07-13T13:42:49;33.70;58.00
38866;DHT22;62686;48.984;8.394;2023-07-13T13:45:19;34.20;58.90
38866;DHT22;62686;48.984;8.394;2023-07-13T13:47:48;35.30;60.50
38866;DHT22;62686;48.984;8.394;2023-07-13T13:50:20;36.10;53.40
38866;DHT22;62686;48.984;8.394;2023-07-13T13:52:49;35.10;55.40
38866;DHT22;62686;48.984;8.394;2023-07-13T13:55:20;33.20;55.80
38866;DHT22;62686;48.984;8.394;2023-07-13T13:57:50;32.80;57.20
38866;DHT22;62686;48.984;8.394;2023-07-13T14:00:20;32.30;57.40
38866;DHT22;62686;48.984;8.394;2023-07-13T14:02:48;32.80;57.40
38866;DHT22;62686;48.984;8.394;2023-07-13T14:05:22;32.90;55.70
38866;DHT22;62686;48.984;8.394;2023-07-13T14:07:50;31.00;56.80
38866;DHT22;62686;48.984;8.394;2023-07-13T14:10:20;30.00;61.10
38866;DHT22;62686;48.984;8.394;2023-07-13T14:12:52;30.50;63.20
38866;DHT22;62686;48.984;8.394;2023-07-13T14:15:22;31.30;60.60
38866;DHT22;62686;48.984;8.394;2023-07-13T14:17:51;31.90;58.30
38866;DHT22;62686;48.984;8.394;2023-07-13T14:20:23;31.90;57.90
38866;DHT22;62686;48.984;8.394;2023-07-13T14:22:52;32.70;58.30
38866;DHT22;62686;48.984;8.394;2023-07-13T14:25:22;33.10;58.50
38866;DHT22;62686;48.984;8.394;2023-07-13T14:27:55;32.00;57.50
38866;DHT22;62686;48.984;8.394;2023-07-13T14:30:25;32.20;60.40
38866;DHT22;62686;48.984;8.394;2023-07-13T14:32:54;31.90;57.30
38866;DHT22;62686;48.984;8.394;2023-07-13T14:35:24;31.90;58.70
38866;DHT22;62686;48.984;8.394;2023-07-13T14:37:52;32.60;59.50
38866;DHT22;62686;48.984;8.394;2023-07-13T14:40:29;32.90;58.70
38866;DHT22;62686;48.984;8.394;2023-07-13T14:42:58;33.10;54.80
38866;DHT22;62686;48.984;8.394;2023-07-13T14:45:27;33.80;55.70
38866;DHT22;62686;48.984;8.394;2023-07-13T14:47:56;33.50;56.20
38866;DHT22;62686;48.984;8.394;2023-07-13T14:50:30;33.80;55.10
38866;DHT22;62686;48.984;8.394;2023-07-13T14:52:58;33.30;56.10
38866;DHT22;62686;48.984;8.394;2023-07-13T14:55:27;33.90;57.60
38866;DHT22;62686;48.984;8.394;2023-07-13T14:57:55;33.90;54.60
38866;DHT22;62686;48.984;8.394;2023-07-13T15:00:24;33.30;55.30
38866;DHT22;62686;48.984;8.394;2023-07-13T15:02:55;32.60;56.40
38866;DHT22;62686;48.984;8.394;2023-07-13T15:05:28;31.70;57.50
38866;DHT22;62686;48.984;8.394;2023-07-13T15:07:58;31.30;60.40
38866;DHT22;62686;48.984;8.394;2023-07-13T15:10:29;31.20;59.30
38866;DHT22;62686;48.984;8.394;2023-07-13T15:13:00;30.80;58.60
38866;DHT22;62686;48.984;8.394;2023-07-13T15:15:39;30.50;58.40
38866;DHT22;62686;48.984;8.394;2023-07-13T15:18:09;30.00;60.00
38866;DHT22;62686;48.984;8.394;2023-07-13T15:20:40;29.10;61.20
38866;DHT22;62686;48.984;8.394;2023-07-13T15:23:09;28.50;64.60
38866;DHT22;62686;48.984;8.394;2023-07-13T15:25:38;28.60;62.70
38866;DHT22;62686;48.984;8.394;2023-07-13T15:28:07;29.00;63.40
38866;DHT22;62686;48.984;8.394;2023-07-13T15:30:40;30.10;64.50
38866;DHT22;62686;48.984;8.394;2023-07-13T15:33:12;30.40;61.00
38866;DHT22;62686;48.984;8.394;2023-07-13T15:35:46;30.80;60.40
38866;DHT22;62686;48.984;8.394;2023-07-13T15:38:17;31.20;59.50
38866;DHT22;62686;48.984;8.394;2023-07-13T15:40:46;31.20;60.80
38866;DHT22;62686;48.984;8.394;2023-07-13T15:43:16;31.20;63.80
38866;DHT22;62686;48.984;8.394;2023-07-13T15:45:45;31.30;60.80
38866;DHT22;62686;48.984;8.394;2023-07-13T15:48:15;31.20;58.80
38866;DHT22;62686;48.984;8.394;2023-07-13T15:50:47;31.00;58.30
38866;DHT22;62686;48.984;8.394;2023-07-13T15:53:23;30.30;58.10
38866;DHT22;62686;48.984;8.394;2023-07-13T15:55:52;30.20;60.30
38866;DHT22;62686;48.984;8.394;2023-07-13T15:58:20;29.90;60.00
38866;DHT22;62686;48.984;8.394;2023-07-13T16:00:49;29.00;64.80
38866;DHT22;62686;48.984;8.394;2023-07-13T16:03:19;28.40;64.90
38866;DHT22;62686;48.984;8.394;2023-07-13T16:05:49;28.20;64.40
38866;DHT22;62686;48.984;8.394;2023-07-13T16:08:24;28.50;65.20